createdAt,value
2023-01-15T00:00:32.951Z,15.37
2023-01-15T00:03:10.885Z,18.60
2023-01-15T00:06:02.084Z,19.83
2023-01-15T00:08:40.840Z,17.60
2023-01-15T00:11:10.718Z,16.63
2023-01-15T00:13:40.779Z,17.37
2023-01-15T00:16:18.269Z,18.07
2023-01-15T00:18:55.491Z,20.00
2023-01-15T00:21:39.502Z,21.47
2023-01-15T00:24:50.093Z,16.53
2023-01-15T00:27:36.923Z,18.93
2023-01-15T00:30:08.365Z,20.50
2023-01-15T00:32:38.464Z,17.13
2023-01-15T00:35:09.055Z,15.73
2023-01-15T00:37:39.744Z,24.17
2023-01-15T00:40:12.747Z,19.47
2023-01-15T00:42:54.383Z,22.87
2023-01-15T00:45:26.909Z,25.87
2023-01-15T00:48:03.233Z,18.53
2023-01-15T00:50:33.444Z,18.57
2023-01-15T00:53:06.736Z,21.40
2023-01-15T00:55:40.693Z,19.77
2023-01-15T00:58:16.522Z,20.77
2023-01-15T01:00:47.797Z,21.13
2023-01-15T01:03:22.455Z,16.50
2023-01-15T01:05:52.727Z,19.43
2023-01-15T01:08:25.168Z,18.60
2023-01-15T01:11:15.040Z,20.93
2023-01-15T01:13:48.519Z,23.17
2023-01-15T01:16:26.530Z,22.10
2023-01-15T01:19:03.678Z,24.07
2023-01-15T01:21:38.888Z,19.43
2023-01-15T01:24:11.863Z,19.83
2023-01-15T01:26:46.578Z,16.60
2023-01-15T01:29:18.373Z,19.77
2023-01-15T01:31:53.253Z,19.07
2023-01-15T01:34:26.993Z,18.83
2023-01-15T01:37:00.553Z,21.37
2023-01-15T01:39:31.644Z,24.83
2023-01-15T01:42:03.585Z,24.00
2023-01-15T01:45:03.244Z,22.40
2023-01-15T01:47:37.089Z,23.13
2023-01-15T01:50:15.931Z,21.20
2023-01-15T01:52:56.179Z,19.27
2023-01-15T01:55:32.171Z,17.97
2023-01-15T01:58:16.328Z,24.53
2023-01-15T02:01:15.471Z,23.30
2023-01-15T02:03:50.102Z,25.43
2023-01-15T02:06:23.510Z,26.57
2023-01-15T02:08:56.792Z,24.67
2023-01-15T02:11:27.666Z,20.47
2023-01-15T02:14:10.451Z,23.60
2023-01-15T02:16:50.561Z,22.63
2023-01-15T02:19:32.151Z,23.77
2023-01-15T02:22:13.511Z,22.80
2023-01-15T02:25:02.063Z,26.57
2023-01-15T02:27:37.495Z,20.87
2023-01-15T02:30:12.580Z,17.40
2023-01-15T02:32:57.954Z,20.47
2023-01-15T02:35:32.134Z,19.50
2023-01-15T02:38:07.445Z,23.43
2023-01-15T02:40:38.641Z,24.07
2023-01-15T02:43:10.420Z,19.80
2023-01-15T02:45:46.443Z,24.90
2023-01-15T02:48:23.821Z,18.83
2023-01-15T02:51:01.671Z,21.13
2023-01-15T02:53:36.573Z,20.67
2023-01-15T02:56:16.847Z,16.63
2023-01-15T02:59:00.126Z,18.53
2023-01-15T03:01:34.909Z,21.97
2023-01-15T03:04:28.064Z,15.03
2023-01-15T03:07:08.095Z,21.27
2023-01-15T03:09:47.448Z,19.67
2023-01-15T03:12:27.666Z,18.80
2023-01-15T03:15:08.584Z,17.63
2023-01-15T03:17:41.421Z,23.40
2023-01-15T03:20:21.851Z,14.80
2023-01-15T03:22:56.019Z,22.43
2023-01-15T03:25:33.057Z,16.30
2023-01-15T03:28:06.464Z,15.37
2023-01-15T03:30:43.964Z,16.77
2023-01-15T03:33:18.186Z,12.33
2023-01-15T03:35:53.356Z,16.07
2023-01-15T03:38:28.077Z,17.40
2023-01-15T03:41:08.450Z,15.87
2023-01-15T03:43:54.272Z,20.63
2023-01-15T03:47:02.485Z,23.20
2023-01-15T03:49:57.516Z,17.13
2023-01-15T03:52:35.981Z,21.67
2023-01-15T03:55:17.396Z,20.63
2023-01-15T03:57:51.962Z,23.33
2023-01-15T04:00:27.338Z,20.07
2023-01-15T04:03:04.389Z,23.67
2023-01-15T04:05:34.877Z,21.10
2023-01-15T04:08:07.136Z,20.23
2023-01-15T04:10:38.939Z,18.47
2023-01-15T04:13:12.593Z,22.50
2023-01-15T04:15:46.475Z,19.73
2023-01-15T04:18:20.167Z,22.80
2023-01-15T04:20:50.621Z,19.37
2023-01-15T04:23:19.630Z,20.43
2023-01-15T04:25:52.929Z,27.27
2023-01-15T04:28:25.716Z,22.73
2023-01-15T04:30:58.476Z,23.87
2023-01-15T04:33:31.221Z,23.77
2023-01-15T04:36:03.121Z,19.43
2023-01-15T04:38:31.968Z,21.60
2023-01-15T04:41:24.721Z,21.33
2023-01-15T04:44:11.268Z,24.10
2023-01-15T04:46:45.104Z,27.07
2023-01-15T04:49:20.027Z,22.73
2023-01-15T04:51:50.285Z,17.70
2023-01-15T04:54:19.537Z,24.40
2023-01-15T04:56:51.446Z,24.60
2023-01-15T04:59:23.131Z,29.70
2023-01-15T05:02:04.039Z,31.83
2023-01-15T05:04:38.031Z,25.70
2023-01-15T05:07:08.176Z,29.00
2023-01-15T05:09:40.868Z,26.03
2023-01-15T05:12:22.144Z,27.00
2023-01-15T05:14:50.966Z,25.53
2023-01-15T05:17:23.920Z,21.70
2023-01-15T05:19:58.320Z,23.60
2023-01-15T05:22:30.918Z,19.67
2023-01-15T05:25:23.840Z,22.20
2023-01-15T05:27:54.423Z,21.47
2023-01-15T05:30:24.624Z,26.33
2023-01-15T05:32:55.183Z,23.47
2023-01-15T05:35:43.111Z,27.73
2023-01-15T05:38:12.532Z,25.43
2023-01-15T05:40:42.237Z,27.73
2023-01-15T05:43:11.918Z,26.73
2023-01-15T05:45:43.665Z,28.27
2023-01-15T05:48:21.008Z,26.23
2023-01-15T05:50:52.125Z,20.30
2023-01-15T05:53:20.739Z,19.77
2023-01-15T05:55:49.733Z,27.93
2023-01-15T05:58:18.595Z,26.60
2023-01-15T06:00:55.598Z,24.60
2023-01-15T06:03:27.102Z,25.10
2023-01-15T06:05:59.699Z,24.33
2023-01-15T06:08:34.077Z,21.13
2023-01-15T06:11:03.785Z,22.10
2023-01-15T06:13:34.311Z,19.13
2023-01-15T06:16:05.920Z,23.63
2023-01-15T06:18:36.160Z,24.80
2023-01-15T06:21:08.144Z,26.23
2023-01-15T06:23:38.696Z,25.47
2023-01-15T06:26:16.729Z,22.60
2023-01-15T06:28:57.053Z,27.67
2023-01-15T06:31:33.603Z,24.77
2023-01-15T06:34:05.033Z,22.40
2023-01-15T06:36:38.859Z,26.37
2023-01-15T06:39:14.686Z,21.93
2023-01-15T06:42:01.649Z,24.70
2023-01-15T06:44:48.377Z,26.50
2023-01-15T06:47:29.496Z,21.40
2023-01-15T06:50:00.172Z,27.43
2023-01-15T06:52:32.272Z,25.50
2023-01-15T06:55:00.852Z,21.47
2023-01-15T06:57:32.712Z,19.03
2023-01-15T07:00:04.562Z,25.70
2023-01-15T07:02:38.125Z,24.97
2023-01-15T07:05:10.497Z,25.17
2023-01-15T07:07:41.568Z,25.70
2023-01-15T07:10:12.398Z,25.87
2023-01-15T07:12:41.118Z,24.10
2023-01-15T07:15:10.725Z,24.23
2023-01-15T07:17:42.349Z,24.17
2023-01-15T07:20:13.156Z,24.60
2023-01-15T07:22:47.476Z,27.90
2023-01-15T07:25:23.295Z,24.57
2023-01-15T07:27:54.636Z,21.17
2023-01-15T07:30:23.657Z,24.07
2023-01-15T07:32:53.716Z,22.10
2023-01-15T07:35:23.077Z,25.80
2023-01-15T07:37:58.239Z,29.97
2023-01-15T07:40:27.612Z,26.97
2023-01-15T07:43:15.078Z,26.13
2023-01-15T07:46:04.805Z,24.90
2023-01-15T07:48:51.214Z,28.17
2023-01-15T07:51:20.316Z,28.67
2023-01-15T07:53:52.187Z,31.83
2023-01-15T07:56:29.217Z,27.90
2023-01-15T07:58:58.643Z,36.13
2023-01-15T08:01:27.635Z,29.80
2023-01-15T08:03:56.531Z,29.33
2023-01-15T08:06:27.629Z,28.67
2023-01-15T08:08:57.673Z,29.57
2023-01-15T08:11:49.107Z,25.17
2023-01-15T08:14:35.800Z,25.97
2023-01-15T08:17:05.014Z,28.13
2023-01-15T08:19:34.512Z,30.53
2023-01-15T08:22:04.570Z,26.70
2023-01-15T08:24:39.649Z,31.07
2023-01-15T08:27:09.658Z,28.27
2023-01-15T08:29:38.752Z,29.07
2023-01-15T08:32:09.334Z,26.03
2023-01-15T08:34:40.808Z,25.60
2023-01-15T08:37:10.105Z,22.90
2023-01-15T08:39:42.919Z,24.57
2023-01-15T08:42:11.964Z,23.40
2023-01-15T08:44:46.410Z,19.13
2023-01-15T08:47:19.081Z,24.33
2023-01-15T08:49:50.864Z,20.17
2023-01-15T08:52:22.538Z,17.73
2023-01-15T08:54:55.309Z,24.33
2023-01-15T08:57:24.127Z,19.27
2023-01-15T08:59:52.701Z,25.47
2023-01-15T09:02:28.832Z,29.47
2023-01-15T09:05:19.403Z,27.17
2023-01-15T09:08:34.201Z,27.13
2023-01-15T09:13:18.135Z,21.13
2023-01-15T09:15:30.062Z,30.47
2023-01-15T09:18:24.859Z,21.57
2023-01-15T09:20:58.348Z,23.03
2023-01-15T09:26:56.224Z,23.87
2023-01-15T09:29:31.957Z,22.17
2023-01-15T09:32:31.773Z,25.93
2023-01-15T09:35:18.052Z,24.17
2023-01-15T09:38:15.914Z,27.67
2023-01-15T09:41:31.263Z,31.80
2023-01-15T09:44:15.127Z,22.97
2023-01-15T09:46:56.379Z,26.07
2023-01-15T09:49:40.522Z,24.83
2023-01-15T09:52:35.369Z,29.87
2023-01-15T09:55:20.620Z,29.97
2023-01-15T09:57:54.775Z,27.77
2023-01-15T10:00:28.356Z,24.13
2023-01-15T10:03:02.131Z,30.83
2023-01-15T10:05:43.461Z,28.57
2023-01-15T10:08:30.361Z,28.47
2023-01-15T10:12:02.885Z,26.67
2023-01-15T10:15:02.673Z,29.67
2023-01-15T10:17:53.867Z,30.03
2023-01-15T10:21:05.796Z,29.33
2023-01-15T10:23:49.776Z,27.77
2023-01-15T10:26:36.213Z,30.77
2023-01-15T10:29:20.681Z,35.40
2023-01-15T10:31:54.426Z,30.43
2023-01-15T10:35:10.719Z,28.67
2023-01-15T10:40:47.755Z,30.37
2023-01-15T10:43:24.771Z,21.27
2023-01-15T10:45:58.456Z,21.53
2023-01-15T10:48:33.054Z,31.13
2023-01-15T10:51:07.510Z,30.63
2023-01-15T10:53:47.416Z,22.73
2023-01-15T10:56:25.268Z,24.80
2023-01-15T10:59:01.658Z,25.00
2023-01-15T11:01:31.431Z,35.43
2023-01-15T11:04:01.485Z,31.83
2023-01-15T11:06:35.507Z,29.00
2023-01-15T11:09:10.424Z,31.73
2023-01-15T11:12:00.723Z,21.87
2023-01-15T11:14:55.272Z,29.90
2023-01-15T11:17:42.729Z,30.63
2023-01-15T11:20:28.769Z,29.77
2023-01-15T11:23:08.079Z,27.47
2023-01-15T11:25:37.674Z,24.53
2023-01-15T11:28:08.569Z,25.83
2023-01-15T11:30:39.552Z,26.30
2023-01-15T11:33:22.753Z,37.50
2023-01-15T11:35:52.583Z,27.73
2023-01-15T11:38:24.258Z,20.70
2023-01-15T11:40:57.049Z,23.10
2023-01-15T11:43:44.705Z,25.77
2023-01-15T11:46:44.872Z,25.77
2023-01-15T11:49:34.751Z,26.67
2023-01-15T11:52:04.828Z,36.93
2023-01-15T11:54:40.553Z,30.73
2023-01-15T11:57:26.895Z,29.03
2023-01-15T11:59:57.486Z,30.37
2023-01-15T12:02:37.862Z,35.47
2023-01-15T12:05:08.431Z,31.40
2023-01-15T12:07:41.159Z,20.87
2023-01-15T12:10:42.137Z,24.00
2023-01-15T12:13:24.807Z,19.57
2023-01-15T12:16:04.212Z,22.27
2023-01-15T12:18:52.224Z,21.63
2023-01-15T12:21:35.335Z,24.53
2023-01-15T12:24:29.307Z,25.20
2023-01-15T12:27:18.867Z,21.40
2023-01-15T12:29:52.192Z,22.17
2023-01-15T12:32:25.593Z,25.67
2023-01-15T12:35:01.241Z,26.77
2023-01-15T12:37:52.050Z,21.13
2023-01-15T12:40:26.539Z,19.37
2023-01-15T12:43:28.185Z,23.93
2023-01-15T12:46:03.941Z,25.60
2023-01-15T12:48:42.596Z,24.43
2023-01-15T12:51:16.297Z,27.00
2023-01-15T12:53:48.209Z,23.77
2023-01-15T12:56:24.448Z,23.17
2023-01-15T12:59:00.111Z,25.93
2023-01-15T13:01:40.526Z,19.10
2023-01-15T13:04:18.569Z,25.53
2023-01-15T13:06:52.146Z,24.47
2023-01-15T13:09:37.716Z,33.87
2023-01-15T13:12:17.141Z,24.77
2023-01-15T13:14:51.299Z,24.60
2023-01-15T13:17:32.731Z,27.00
2023-01-15T13:20:25.387Z,21.87
2023-01-15T13:23:05.207Z,28.53
2023-01-15T13:25:54.241Z,20.63
2023-01-15T13:28:53.779Z,31.43
2023-01-15T13:31:50.381Z,24.90
2023-01-15T13:34:29.317Z,22.93
2023-01-15T13:37:05.225Z,25.53
2023-01-15T13:39:41.146Z,24.90
2023-01-15T13:42:36.602Z,23.97
2023-01-15T13:45:28.005Z,25.30
2023-01-15T13:48:07.670Z,25.90
2023-01-15T13:50:46.323Z,24.37
2023-01-15T13:53:34.309Z,29.60
2023-01-15T13:56:07.721Z,29.80
2023-01-15T13:58:44.057Z,21.93
2023-01-15T14:01:28.130Z,24.10
2023-01-15T14:04:04.701Z,30.40
2023-01-15T14:06:41.712Z,25.70
2023-01-15T14:09:13.671Z,24.63
2023-01-15T14:12:00.163Z,30.53
2023-01-15T14:14:50.035Z,25.53
2023-01-15T14:18:05.273Z,24.27
2023-01-15T14:20:55.809Z,24.60
2023-01-15T14:23:53.971Z,19.40
2023-01-15T14:26:30.210Z,28.23
2023-01-15T14:29:05.989Z,21.93
2023-01-15T14:31:51.567Z,23.90
2023-01-15T14:34:27.883Z,21.83
2023-01-15T14:37:02.133Z,20.40
2023-01-15T14:39:36.299Z,20.87
2023-01-15T14:42:27.753Z,24.17
2023-01-15T14:45:04.917Z,22.07
2023-01-15T14:47:39.717Z,24.23
2023-01-15T14:50:38.684Z,28.77
2023-01-15T14:53:37.667Z,22.87
2023-01-15T14:56:16.292Z,21.83
2023-01-15T14:58:54.872Z,22.33
2023-01-15T15:01:46.563Z,21.90
2023-01-15T15:04:24.752Z,20.20
2023-01-15T15:07:04.777Z,23.80
2023-01-15T15:10:01.412Z,20.50
2023-01-15T15:12:47.688Z,19.10
2023-01-15T15:15:45.856Z,18.50
2023-01-15T15:21:15.637Z,13.80
2023-01-15T15:23:49.055Z,10.53
2023-01-15T15:26:25.571Z,12.83
2023-01-15T15:28:58.463Z,12.50
2023-01-15T15:31:27.919Z,14.47
2023-01-15T15:33:58.085Z,12.03
2023-01-15T15:36:29.370Z,12.93
2023-01-15T15:39:03.219Z,12.63
2023-01-15T15:41:55.039Z,13.43
2023-01-15T15:44:51.169Z,12.60
2023-01-15T15:47:39.277Z,17.20
2023-01-15T15:50:08.679Z,21.17
2023-01-15T15:52:36.867Z,17.13
2023-01-15T15:55:06.601Z,22.23
2023-01-15T15:57:36.842Z,23.63
2023-01-15T16:00:06.277Z,27.87
2023-01-15T16:02:38.647Z,17.97
2023-01-15T16:05:23.583Z,28.43
2023-01-15T16:07:52.725Z,27.00
2023-01-15T16:10:33.712Z,35.93
2023-01-15T16:13:07.087Z,29.83
2023-01-15T16:15:40.129Z,29.47
2023-01-15T16:18:19.717Z,27.63
2023-01-15T16:20:48.469Z,29.90
2023-01-15T16:23:22.511Z,26.47
2023-01-15T16:26:00.814Z,21.07
2023-01-15T16:28:38.607Z,26.73
2023-01-15T16:31:07.851Z,25.20
2023-01-15T16:33:37.776Z,21.23
2023-01-15T16:36:08.386Z,22.93
2023-01-15T16:38:40.378Z,21.97
2023-01-15T16:41:17.996Z,21.57
2023-01-15T16:43:56.507Z,23.00
2023-01-15T16:46:28.096Z,29.00
2023-01-15T16:49:21.364Z,20.83
2023-01-15T16:51:49.978Z,20.60
2023-01-15T16:54:48.024Z,31.00
2023-01-15T16:57:32.400Z,21.47
2023-01-15T17:00:05.261Z,23.47
2023-01-15T17:02:45.841Z,19.47
2023-01-15T17:05:25.547Z,23.60
2023-01-15T17:07:55.882Z,23.77
2023-01-15T17:10:26.823Z,18.40
2023-01-15T17:12:57.592Z,19.30
2023-01-15T17:15:48.538Z,25.57
2023-01-15T17:18:28.941Z,26.43
2023-01-15T17:20:57.948Z,19.47
2023-01-15T17:23:30.416Z,17.97
2023-01-15T17:25:59.580Z,19.03
2023-01-15T17:28:28.108Z,19.57
2023-01-15T17:31:02.805Z,15.50
2023-01-15T17:33:31.213Z,14.47
2023-01-15T17:36:01.502Z,14.93
2023-01-15T17:38:30.093Z,16.50
2023-01-15T17:41:02.898Z,17.47
2023-01-15T17:43:31.743Z,19.00
2023-01-15T17:46:01.483Z,20.50
2023-01-15T17:48:29.884Z,17.90
2023-01-15T17:51:01.524Z,25.40
2023-01-15T17:53:32.731Z,19.83
2023-01-15T17:56:18.736Z,20.40
2023-01-15T17:59:05.103Z,21.93
2023-01-15T18:01:57.094Z,9.67
2023-01-15T18:04:47.534Z,9.47
2023-01-15T18:07:22.259Z,8.40
2023-01-15T18:09:53.043Z,10.43
2023-01-15T18:12:21.694Z,9.40
2023-01-15T18:14:50.630Z,7.57
2023-01-15T18:17:20.510Z,10.97
2023-01-15T18:19:48.967Z,11.63
2023-01-15T18:22:20.870Z,10.17
2023-01-15T18:24:49.196Z,6.30
2023-01-15T18:27:17.820Z,12.00
2023-01-15T18:29:46.340Z,8.40
2023-01-15T18:32:17.927Z,11.57
2023-01-15T18:34:47.754Z,17.97
2023-01-15T18:37:16.219Z,16.13
2023-01-15T18:39:44.588Z,12.43
2023-01-15T18:42:30.221Z,12.03
2023-01-15T18:45:27.183Z,10.67
2023-01-15T18:47:55.424Z,10.50
2023-01-15T18:50:25.387Z,10.83
2023-01-15T18:52:53.802Z,9.43
2023-01-15T18:55:24.019Z,10.87
2023-01-15T18:57:52.966Z,11.57
2023-01-15T19:00:22.832Z,8.93
2023-01-15T19:02:52.688Z,12.23
2023-01-15T19:05:21.457Z,11.57
2023-01-15T19:07:51.762Z,10.57
2023-01-15T19:10:20.801Z,16.47
2023-01-15T19:12:49.876Z,10.27
2023-01-15T19:15:38.880Z,8.07
2023-01-15T19:18:25.049Z,15.23
2023-01-15T19:20:53.742Z,14.93
2023-01-15T19:23:23.535Z,14.87
2023-01-15T19:25:52.192Z,12.17
2023-01-15T19:28:22.046Z,10.10
2023-01-15T19:31:13.118Z,10.63
2023-01-15T19:33:41.398Z,11.17
2023-01-15T19:36:10.344Z,11.17
2023-01-15T19:38:40.807Z,13.73
2023-01-15T19:41:30.134Z,12.20
2023-01-15T19:44:15.884Z,8.93
2023-01-15T19:47:07.540Z,11.47
2023-01-15T19:49:55.159Z,17.43
2023-01-15T19:52:38.984Z,11.93
2023-01-15T19:55:11.883Z,13.53
2023-01-15T19:57:41.138Z,13.30
2023-01-15T20:00:12.053Z,10.17
2023-01-15T20:02:40.719Z,8.67
2023-01-15T20:05:10.260Z,10.77
2023-01-15T20:07:39.027Z,9.87
2023-01-15T20:10:12.233Z,10.63
2023-01-15T20:12:58.052Z,9.43
2023-01-15T20:15:27.020Z,5.83
2023-01-15T20:17:55.506Z,4.20
2023-01-15T20:20:24.475Z,8.13
2023-01-15T20:22:56.108Z,6.07
2023-01-15T20:25:26.909Z,5.83
2023-01-15T20:27:55.773Z,7.97
2023-01-15T20:30:25.678Z,4.10
2023-01-15T20:32:56.501Z,5.53
2023-01-15T20:35:31.687Z,6.80
2023-01-15T20:38:00.408Z,5.77
2023-01-15T20:40:30.802Z,5.43
2023-01-15T20:43:17.029Z,8.50
2023-01-15T20:45:45.877Z,4.17
2023-01-15T20:48:31.747Z,5.10
2023-01-15T20:51:03.267Z,7.77
2023-01-15T20:53:34.633Z,4.60
2023-01-15T20:56:12.134Z,10.33
2023-01-15T20:58:40.611Z,6.73
2023-01-15T21:01:11.261Z,7.13
2023-01-15T21:03:40.579Z,9.10
2023-01-15T21:06:10.582Z,8.70
2023-01-15T21:08:39.838Z,9.03
2023-01-15T21:11:09.443Z,11.33
2023-01-15T21:13:41.366Z,9.50
2023-01-15T21:16:17.948Z,10.77
2023-01-15T21:18:46.691Z,10.83
2023-01-15T21:21:17.654Z,12.23
2023-01-15T21:23:49.157Z,14.20
2023-01-15T21:26:19.416Z,13.93
2023-01-15T21:28:47.597Z,13.40
2023-01-15T21:31:16.821Z,8.70
2023-01-15T21:33:45.697Z,11.87
2023-01-15T21:36:16.270Z,16.00
2023-01-15T21:38:50.766Z,11.77
2023-01-15T21:41:20.420Z,14.60
2023-01-15T21:44:05.940Z,17.80
2023-01-15T21:46:34.817Z,12.20
2023-01-15T21:49:03.213Z,21.90
2023-01-15T21:51:32.350Z,19.73
2023-01-15T21:54:00.884Z,19.57
2023-01-15T21:56:43.216Z,19.43
2023-01-15T21:59:15.940Z,21.87
2023-01-15T22:01:44.813Z,16.90
2023-01-15T22:04:13.386Z,12.70
2023-01-15T22:06:41.741Z,21.20
2023-01-15T22:09:10.149Z,23.20
2023-01-15T22:11:50.092Z,18.93
2023-01-15T22:14:22.225Z,19.00
2023-01-15T22:16:53.864Z,14.20
2023-01-15T22:19:24.270Z,11.80
2023-01-15T22:21:53.624Z,16.37
2023-01-15T22:24:22.491Z,11.60
2023-01-15T22:26:55.007Z,10.13
2023-01-15T22:29:23.675Z,14.43
2023-01-15T22:31:52.438Z,18.23
2023-01-15T22:34:22.702Z,12.93
2023-01-15T22:36:51.566Z,15.87
2023-01-15T22:39:20.779Z,16.43
2023-01-15T22:42:06.482Z,16.73
2023-01-15T22:44:36.381Z,12.27
2023-01-15T22:47:07.630Z,13.00
2023-01-15T22:49:36.149Z,9.33
2023-01-15T22:52:04.995Z,11.20
2023-01-15T22:54:33.578Z,15.10
2023-01-15T22:57:02.043Z,13.63
2023-01-15T22:59:30.270Z,14.83
2023-01-15T23:02:00.147Z,12.07
2023-01-15T23:04:28.722Z,12.57
2023-01-15T23:06:57.234Z,13.33
2023-01-15T23:09:25.781Z,14.20
2023-01-15T23:11:54.535Z,12.93
2023-01-15T23:14:22.912Z,11.07
2023-01-15T23:16:52.092Z,13.83
2023-01-15T23:19:22.045Z,12.73
2023-01-15T23:21:50.657Z,8.97
2023-01-15T23:24:19.416Z,12.77
2023-01-15T23:26:47.917Z,10.07
2023-01-15T23:29:16.524Z,8.50
2023-01-15T23:31:48.226Z,17.30
2023-01-15T23:34:17.125Z,11.73
2023-01-15T23:36:49.910Z,15.27
2023-01-15T23:39:18.316Z,9.57
2023-01-15T23:42:04.274Z,12.83
2023-01-15T23:44:49.847Z,15.37
2023-01-15T23:47:18.288Z,11.90
2023-01-15T23:49:49.678Z,11.23
2023-01-15T23:52:19.652Z,14.97
2023-01-15T23:54:48.304Z,8.87
2023-01-15T23:57:17.528Z,11.93
2023-01-15T23:59:46.398Z,12.27
